sensor_id;sensor_type;location;lat;lon;timestamp;P1;durP1;ratioP1;P2;durP2;ratioP2
13108;SDS011;6620;53.734;11.510;2023-02-01T00:02:14;26.83;;;3.43;;
13108;SDS011;6620;53.734;11.510;2023-02-01T00:04:40;22.17;;;1.98;;
13108;SDS011;6620;53.734;11.510;2023-02-01T00:07:05;23.05;;;3.85;;
13108;SDS011;6620;53.734;11.510;2023-02-01T00:09:31;25.55;;;4.28;;
13108;SDS011;6620;53.734;11.510;2023-02-01T00:11:56;28.20;;;3.73;;
13108;SDS011;6620;53.734;11.510;2023-02-01T00:14:24;31.38;;;3.63;;
13108;SDS011;6620;53.734;11.510;2023-02-01T00:16:49;19.40;;;3.47;;
13108;SDS011;6620;53.734;11.510;2023-02-01T00:19:14;26.00;;;3.33;;
13108;SDS011;6620;53.734;11.510;2023-02-01T00:21:40;24.42;;;2.92;;
13108;SDS011;6620;53.734;11.510;2023-02-01T00:24:05;15.60;;;2.38;;
13108;SDS011;6620;53.734;11.510;2023-02-01T00:26:40;26.83;;;3.25;;
13108;SDS011;6620;53.734;11.510;2023-02-01T00:29:08;27.42;;;3.08;;
13108;SDS011;6620;53.734;11.510;2023-02-01T00:31:34;8.27;;;0.93;;
13108;SDS011;6620;53.734;11.510;2023-02-01T00:33:59;18.83;;;3.07;;
13108;SDS011;6620;53.734;11.510;2023-02-01T00:36:24;23.17;;;3.22;;
13108;SDS011;6620;53.734;11.510;2023-02-01T00:38:50;17.85;;;2.90;;
13108;SDS011;6620;53.734;11.510;2023-02-01T00:41:16;25.53;;;4.03;;
13108;SDS011;6620;53.734;11.510;2023-02-01T00:43:41;14.10;;;2.70;;
13108;SDS011;6620;53.734;11.510;2023-02-01T00:46:07;27.08;;;4.15;;
13108;SDS011;6620;53.734;11.510;2023-02-01T00:48:32;17.25;;;2.15;;
13108;SDS011;6620;53.734;11.510;2023-02-01T00:51:01;26.00;;;4.20;;
13108;SDS011;6620;53.734;11.510;2023-02-01T00:53:27;24.77;;;3.80;;
13108;SDS011;6620;53.734;11.510;2023-02-01T00:55:52;22.38;;;2.88;;
13108;SDS011;6620;53.734;11.510;2023-02-01T00:58:17;34.42;;;3.97;;
13108;SDS011;6620;53.734;11.510;2023-02-01T01:00:42;22.27;;;2.00;;
13108;SDS011;6620;53.734;11.510;2023-02-01T01:03:07;18.83;;;2.97;;
13108;SDS011;6620;53.734;11.510;2023-02-01T01:05:45;25.70;;;3.50;;
13108;SDS011;6620;53.734;11.510;2023-02-01T01:08:10;8.85;;;1.33;;
13108;SDS011;6620;53.734;11.510;2023-02-01T01:10:36;30.90;;;2.00;;
13108;SDS011;6620;53.734;11.510;2023-02-01T01:13:01;21.33;;;2.13;;
13108;SDS011;6620;53.734;11.510;2023-02-01T01:15:26;24.27;;;3.03;;
13108;SDS011;6620;53.734;11.510;2023-02-01T01:17:51;43.70;;;3.33;;
13108;SDS011;6620;53.734;11.510;2023-02-01T01:20:16;24.90;;;3.13;;
13108;SDS011;6620;53.734;11.510;2023-02-01T01:22:42;16.58;;;2.78;;
13108;SDS011;6620;53.734;11.510;2023-02-01T01:25:07;9.77;;;1.33;;
13108;SDS011;6620;53.734;11.510;2023-02-01T01:27:32;16.00;;;2.60;;
13108;SDS011;6620;53.734;11.510;2023-02-01T01:29:57;16.10;;;2.22;;
13108;SDS011;6620;53.734;11.510;2023-02-01T01:32:22;13.13;;;1.23;;
13108;SDS011;6620;53.734;11.510;2023-02-01T01:34:48;23.38;;;3.65;;
13108;SDS011;6620;53.734;11.510;2023-02-01T01:37:13;20.23;;;2.60;;
13108;SDS011;6620;53.734;11.510;2023-02-01T01:39:38;25.60;;;2.47;;
13108;SDS011;6620;53.734;11.510;2023-02-01T01:42:03;21.17;;;3.13;;
13108;SDS011;6620;53.734;11.510;2023-02-01T01:47:13;17.15;;;2.40;;
13108;SDS011;6620;53.734;11.510;2023-02-01T01:49:39;16.73;;;2.58;;
13108;SDS011;6620;53.734;11.510;2023-02-01T01:52:04;15.70;;;2.67;;
13108;SDS011;6620;53.734;11.510;2023-02-01T01:56:57;17.25;;;2.88;;
13108;SDS011;6620;53.734;11.510;2023-02-01T01:59:23;10.88;;;2.72;;
13108;SDS011;6620;53.734;11.510;2023-02-01T02:01:49;27.63;;;3.05;;
13108;SDS011;6620;53.734;11.510;2023-02-01T02:04:14;17.73;;;2.72;;
13108;SDS011;6620;53.734;11.510;2023-02-01T02:09:24;15.65;;;2.75;;
13108;SDS011;6620;53.734;11.510;2023-02-01T02:11:49;11.52;;;2.70;;
13108;SDS011;6620;53.734;11.510;2023-02-01T02:14:15;18.97;;;3.00;;
13108;SDS011;6620;53.734;11.510;2023-02-01T02:16:47;16.67;;;2.67;;
13108;SDS011;6620;53.734;11.510;2023-02-01T02:35:02;24.88;;;2.85;;
13108;SDS011;6620;53.734;11.510;2023-02-01T02:40:04;17.88;;;4.78;;
13108;SDS011;6620;53.734;11.510;2023-02-01T02:42:37;15.50;;;2.15;;
13108;SDS011;6620;53.734;11.510;2023-02-01T02:48:26;22.67;;;3.75;;
13108;SDS011;6620;53.734;11.510;2023-02-01T02:54:06;22.52;;;2.45;;
13108;SDS011;6620;53.734;11.510;2023-02-01T02:56:50;19.25;;;1.95;;
13108;SDS011;6620;53.734;11.510;2023-02-01T02:59:35;27.20;;;3.72;;
13108;SDS011;6620;53.734;11.510;2023-02-01T03:02:20;27.63;;;4.78;;
13108;SDS011;6620;53.734;11.510;2023-02-01T03:05:05;32.72;;;4.70;;
13108;SDS011;6620;53.734;11.510;2023-02-01T03:10:18;24.50;;;3.85;;
13108;SDS011;6620;53.734;11.510;2023-02-01T03:12:48;31.35;;;4.15;;
13108;SDS011;6620;53.734;11.510;2023-02-01T03:15:31;22.65;;;2.45;;
13108;SDS011;6620;53.734;11.510;2023-02-01T03:17:57;24.77;;;3.05;;
13108;SDS011;6620;53.734;11.510;2023-02-01T03:20:24;35.88;;;4.18;;
13108;SDS011;6620;53.734;11.510;2023-02-01T03:22:49;41.80;;;7.28;;
13108;SDS011;6620;53.734;11.510;2023-02-01T03:25:18;35.03;;;5.22;;
13108;SDS011;6620;53.734;11.510;2023-02-01T03:27:51;28.52;;;3.08;;
13108;SDS011;6620;53.734;11.510;2023-02-01T03:32:46;27.65;;;3.20;;
13108;SDS011;6620;53.734;11.510;2023-02-01T03:38:18;33.38;;;4.53;;
13108;SDS011;6620;53.734;11.510;2023-02-01T03:40:45;25.63;;;3.45;;
13108;SDS011;6620;53.734;11.510;2023-02-01T03:43:12;33.17;;;3.85;;
13108;SDS011;6620;53.734;11.510;2023-02-01T03:45:40;37.60;;;3.78;;
13108;SDS011;6620;53.734;11.510;2023-02-01T03:48:07;39.05;;;6.95;;
13108;SDS011;6620;53.734;11.510;2023-02-01T03:50:33;20.80;;;3.47;;
13108;SDS011;6620;53.734;11.510;2023-02-01T03:53:02;32.55;;;4.57;;
13108;SDS011;6620;53.734;11.510;2023-02-01T03:55:30;34.63;;;3.80;;
13108;SDS011;6620;53.734;11.510;2023-02-01T03:58:01;28.80;;;4.00;;
13108;SDS011;6620;53.734;11.510;2023-02-01T04:00:27;32.53;;;4.07;;
13108;SDS011;6620;53.734;11.510;2023-02-01T04:02:53;28.25;;;3.20;;
13108;SDS011;6620;53.734;11.510;2023-02-01T04:05:18;24.23;;;3.22;;
13108;SDS011;6620;53.734;11.510;2023-02-01T04:07:43;40.92;;;5.18;;
13108;SDS011;6620;53.734;11.510;2023-02-01T04:10:09;33.10;;;3.67;;
13108;SDS011;6620;53.734;11.510;2023-02-01T04:12:34;43.60;;;5.20;;
13108;SDS011;6620;53.734;11.510;2023-02-01T04:14:59;37.50;;;5.33;;
13108;SDS011;6620;53.734;11.510;2023-02-01T04:17:25;31.97;;;4.90;;
13108;SDS011;6620;53.734;11.510;2023-02-01T04:19:50;38.65;;;4.78;;
13108;SDS011;6620;53.734;11.510;2023-02-01T04:22:15;31.67;;;5.57;;
13108;SDS011;6620;53.734;11.510;2023-02-01T04:24:40;25.33;;;3.13;;
13108;SDS011;6620;53.734;11.510;2023-02-01T04:27:05;19.08;;;2.95;;
13108;SDS011;6620;53.734;11.510;2023-02-01T04:29:31;30.70;;;3.80;;
13108;SDS011;6620;53.734;11.510;2023-02-01T04:31:56;29.73;;;3.87;;
13108;SDS011;6620;53.734;11.510;2023-02-01T04:34:21;32.53;;;3.70;;
13108;SDS011;6620;53.734;11.510;2023-02-01T04:36:47;19.70;;;3.38;;
13108;SDS011;6620;53.734;11.510;2023-02-01T04:39:12;22.42;;;3.58;;
13108;SDS011;6620;53.734;11.510;2023-02-01T04:41:38;22.70;;;4.00;;
13108;SDS011;6620;53.734;11.510;2023-02-01T04:44:03;23.43;;;2.20;;
13108;SDS011;6620;53.734;11.510;2023-02-01T04:46:28;24.30;;;3.05;;
13108;SDS011;6620;53.734;11.510;2023-02-01T04:48:53;15.20;;;3.13;;
13108;SDS011;6620;53.734;11.510;2023-02-01T04:51:18;14.10;;;1.70;;
13108;SDS011;6620;53.734;11.510;2023-02-01T04:53:44;22.43;;;2.13;;
13108;SDS011;6620;53.734;11.510;2023-02-01T04:56:09;20.95;;;2.92;;
13108;SDS011;6620;53.734;11.510;2023-02-01T04:58:34;24.38;;;2.00;;
13108;SDS011;6620;53.734;11.510;2023-02-01T05:01:01;13.80;;;1.50;;
13108;SDS011;6620;53.734;11.510;2023-02-01T05:03:29;13.88;;;1.65;;
13108;SDS011;6620;53.734;11.510;2023-02-01T05:05:54;4.07;;;1.40;;
13108;SDS011;6620;53.734;11.510;2023-02-01T05:08:19;7.43;;;1.10;;
13108;SDS011;6620;53.734;11.510;2023-02-01T05:10:44;12.02;;;1.52;;
13108;SDS011;6620;53.734;11.510;2023-02-01T05:13:10;11.25;;;1.10;;
13108;SDS011;6620;53.734;11.510;2023-02-01T05:15:54;6.82;;;1.50;;
13108;SDS011;6620;53.734;11.510;2023-02-01T05:18:19;10.67;;;1.67;;
13108;SDS011;6620;53.734;11.510;2023-02-01T05:20:44;2.83;;;0.83;;
13108;SDS011;6620;53.734;11.510;2023-02-01T05:23:09;4.77;;;0.67;;
13108;SDS011;6620;53.734;11.510;2023-02-01T05:25:34;6.93;;;0.77;;
13108;SDS011;6620;53.734;11.510;2023-02-01T05:27:59;7.23;;;1.83;;
13108;SDS011;6620;53.734;11.510;2023-02-01T05:30:25;7.03;;;0.70;;
13108;SDS011;6620;53.734;11.510;2023-02-01T05:32:50;7.78;;;1.23;;
13108;SDS011;6620;53.734;11.510;2023-02-01T05:35:16;11.63;;;1.27;;
13108;SDS011;6620;53.734;11.510;2023-02-01T05:37:41;4.77;;;0.77;;
13108;SDS011;6620;53.734;11.510;2023-02-01T05:40:06;7.57;;;1.03;;
13108;SDS011;6620;53.734;11.510;2023-02-01T05:42:31;6.80;;;1.00;;
13108;SDS011;6620;53.734;11.510;2023-02-01T05:44:57;4.77;;;0.90;;
13108;SDS011;6620;53.734;11.510;2023-02-01T05:47:22;2.72;;;0.90;;
13108;SDS011;6620;53.734;11.510;2023-02-01T05:49:47;5.50;;;1.10;;
13108;SDS011;6620;53.734;11.510;2023-02-01T05:52:12;4.87;;;0.60;;
13108;SDS011;6620;53.734;11.510;2023-02-01T05:54:37;3.40;;;0.68;;
13108;SDS011;6620;53.734;11.510;2023-02-01T05:57:02;6.63;;;0.97;;
13108;SDS011;6620;53.734;11.510;2023-02-01T05:59:28;5.50;;;0.57;;
13108;SDS011;6620;53.734;11.510;2023-02-01T06:01:53;6.63;;;1.45;;
13108;SDS011;6620;53.734;11.510;2023-02-01T06:04:18;3.27;;;0.73;;
13108;SDS011;6620;53.734;11.510;2023-02-01T06:06:43;6.70;;;1.30;;
13108;SDS011;6620;53.734;11.510;2023-02-01T06:09:09;9.05;;;3.10;;
13108;SDS011;6620;53.734;11.510;2023-02-01T06:11:34;6.37;;;0.50;;
13108;SDS011;6620;53.734;11.510;2023-02-01T06:13:59;4.73;;;0.40;;
13108;SDS011;6620;53.734;11.510;2023-02-01T06:16:24;5.90;;;0.63;;
13108;SDS011;6620;53.734;11.510;2023-02-01T06:18:50;4.95;;;0.73;;
13108;SDS011;6620;53.734;11.510;2023-02-01T06:21:15;3.42;;;0.60;;
13108;SDS011;6620;53.734;11.510;2023-02-01T06:23:48;2.75;;;0.50;;
13108;SDS011;6620;53.734;11.510;2023-02-01T06:26:13;2.92;;;0.70;;
13108;SDS011;6620;53.734;11.510;2023-02-01T06:28:38;4.83;;;0.90;;
13108;SDS011;6620;53.734;11.510;2023-02-01T06:31:04;4.80;;;0.68;;
13108;SDS011;6620;53.734;11.510;2023-02-01T06:33:31;5.53;;;0.52;;
13108;SDS011;6620;53.734;11.510;2023-02-01T06:35:57;5.15;;;0.60;;
13108;SDS011;6620;53.734;11.510;2023-02-01T06:38:23;4.70;;;0.70;;
13108;SDS011;6620;53.734;11.510;2023-02-01T06:40:51;4.32;;;0.63;;
13108;SDS011;6620;53.734;11.510;2023-02-01T06:43:17;6.03;;;1.02;;
13108;SDS011;6620;53.734;11.510;2023-02-01T06:45:42;3.78;;;0.50;;
13108;SDS011;6620;53.734;11.510;2023-02-01T06:48:07;3.95;;;0.65;;
13108;SDS011;6620;53.734;11.510;2023-02-01T06:50:32;4.10;;;0.73;;
13108;SDS011;6620;53.734;11.510;2023-02-01T06:52:57;4.18;;;0.93;;
13108;SDS011;6620;53.734;11.510;2023-02-01T06:55:23;2.78;;;0.88;;
13108;SDS011;6620;53.734;11.510;2023-02-01T06:57:52;4.87;;;0.93;;
13108;SDS011;6620;53.734;11.510;2023-02-01T07:00:17;4.00;;;0.57;;
13108;SDS011;6620;53.734;11.510;2023-02-01T07:02:42;2.33;;;0.43;;
13108;SDS011;6620;53.734;11.510;2023-02-01T07:05:08;2.70;;;0.50;;
13108;SDS011;6620;53.734;11.510;2023-02-01T07:07:33;1.63;;;0.40;;
13108;SDS011;6620;53.734;11.510;2023-02-01T07:09:58;2.33;;;0.87;;
13108;SDS011;6620;53.734;11.510;2023-02-01T07:12:23;2.33;;;0.40;;
13108;SDS011;6620;53.734;11.510;2023-02-01T07:14:49;1.98;;;0.50;;
13108;SDS011;6620;53.734;11.510;2023-02-01T07:17:14;1.75;;;0.40;;
13108;SDS011;6620;53.734;11.510;2023-02-01T07:19:39;1.40;;;0.40;;
13108;SDS011;6620;53.734;11.510;2023-02-01T07:22:04;3.00;;;0.50;;
13108;SDS011;6620;53.734;11.510;2023-02-01T07:24:30;2.35;;;0.35;;
13108;SDS011;6620;53.734;11.510;2023-02-01T07:26:56;2.92;;;0.70;;
13108;SDS011;6620;53.734;11.510;2023-02-01T07:29:21;1.97;;;0.43;;
13108;SDS011;6620;53.734;11.510;2023-02-01T07:31:46;1.77;;;0.35;;
13108;SDS011;6620;53.734;11.510;2023-02-01T07:34:11;3.57;;;1.37;;
13108;SDS011;6620;53.734;11.510;2023-02-01T07:36:37;2.28;;;0.77;;
13108;SDS011;6620;53.734;11.510;2023-02-01T07:39:02;4.30;;;0.87;;
13108;SDS011;6620;53.734;11.510;2023-02-01T07:41:28;6.03;;;1.10;;
13108;SDS011;6620;53.734;11.510;2023-02-01T07:43:53;1.38;;;0.85;;
13108;SDS011;6620;53.734;11.510;2023-02-01T07:46:18;2.33;;;1.07;;
13108;SDS011;6620;53.734;11.510;2023-02-01T07:48:43;3.85;;;0.40;;
13108;SDS011;6620;53.734;11.510;2023-02-01T07:51:10;4.10;;;0.30;;
13108;SDS011;6620;53.734;11.510;2023-02-01T07:53:36;2.53;;;1.65;;
13108;SDS011;6620;53.734;11.510;2023-02-01T07:56:02;3.72;;;0.60;;
13108;SDS011;6620;53.734;11.510;2023-02-01T07:58:27;5.22;;;0.77;;
13108;SDS011;6620;53.734;11.510;2023-02-01T08:00:53;4.45;;;0.90;;
13108;SDS011;6620;53.734;11.510;2023-02-01T08:03:37;5.78;;;0.30;;
13108;SDS011;6620;53.734;11.510;2023-02-01T08:06:02;1.67;;;0.60;;
13108;SDS011;6620;53.734;11.510;2023-02-01T08:08:27;2.65;;;0.80;;
13108;SDS011;6620;53.734;11.510;2023-02-01T08:11:03;3.75;;;0.68;;
13108;SDS011;6620;53.734;11.510;2023-02-01T08:13:29;2.58;;;0.52;;
13108;SDS011;6620;53.734;11.510;2023-02-01T08:15:58;1.73;;;0.45;;
13108;SDS011;6620;53.734;11.510;2023-02-01T08:18:24;4.10;;;0.82;;
13108;SDS011;6620;53.734;11.510;2023-02-01T08:20:49;8.07;;;2.17;;
13108;SDS011;6620;53.734;11.510;2023-02-01T08:23:14;4.00;;;0.90;;
13108;SDS011;6620;53.734;11.510;2023-02-01T08:25:39;0.70;;;0.68;;
13108;SDS011;6620;53.734;11.510;2023-02-01T08:28:05;2.90;;;0.43;;
13108;SDS011;6620;53.734;11.510;2023-02-01T08:30:30;2.92;;;0.73;;
13108;SDS011;6620;53.734;11.510;2023-02-01T08:32:55;7.03;;;1.40;;
13108;SDS011;6620;53.734;11.510;2023-02-01T08:35:20;1.20;;;0.90;;
13108;SDS011;6620;53.734;11.510;2023-02-01T08:37:46;4.30;;;0.80;;
13108;SDS011;6620;53.734;11.510;2023-02-01T08:40:11;9.00;;;1.00;;
13108;SDS011;6620;53.734;11.510;2023-02-01T08:42:36;6.10;;;0.95;;
13108;SDS011;6620;53.734;11.510;2023-02-01T08:45:26;5.68;;;0.65;;
13108;SDS011;6620;53.734;11.510;2023-02-01T08:47:53;4.53;;;1.10;;
13108;SDS011;6620;53.734;11.510;2023-02-01T08:50:19;7.18;;;1.50;;
13108;SDS011;6620;53.734;11.510;2023-02-01T08:52:44;10.05;;;1.50;;
13108;SDS011;6620;53.734;11.510;2023-02-01T08:55:10;4.03;;;0.57;;
13108;SDS011;6620;53.734;11.510;2023-02-01T08:57:35;11.05;;;1.13;;
13108;SDS011;6620;53.734;11.510;2023-02-01T09:00:01;3.10;;;1.00;;
13108;SDS011;6620;53.734;11.510;2023-02-01T09:02:26;11.73;;;1.60;;
13108;SDS011;6620;53.734;11.510;2023-02-01T09:04:51;8.88;;;2.08;;
13108;SDS011;6620;53.734;11.510;2023-02-01T09:07:17;7.72;;;1.15;;
13108;SDS011;6620;53.734;11.510;2023-02-01T09:09:43;8.15;;;1.33;;
13108;SDS011;6620;53.734;11.510;2023-02-01T09:12:08;6.55;;;1.58;;
13108;SDS011;6620;53.734;11.510;2023-02-01T09:14:33;8.03;;;1.40;;
13108;SDS011;6620;53.734;11.510;2023-02-01T09:16:58;5.45;;;1.52;;
13108;SDS011;6620;53.734;11.510;2023-02-01T09:19:24;13.77;;;2.27;;
13108;SDS011;6620;53.734;11.510;2023-02-01T09:21:49;11.90;;;1.50;;
13108;SDS011;6620;53.734;11.510;2023-02-01T09:24:14;10.52;;;1.30;;
13108;SDS011;6620;53.734;11.510;2023-02-01T09:26:39;12.80;;;2.83;;
13108;SDS011;6620;53.734;11.510;2023-02-01T09:29:05;14.75;;;2.08;;
13108;SDS011;6620;53.734;11.510;2023-02-01T09:31:35;20.05;;;2.30;;
13108;SDS011;6620;53.734;11.510;2023-02-01T09:34:00;16.25;;;1.58;;
13108;SDS011;6620;53.734;11.510;2023-02-01T09:36:25;12.57;;;1.67;;
13108;SDS011;6620;53.734;11.510;2023-02-01T09:38:51;12.70;;;1.42;;
13108;SDS011;6620;53.734;11.510;2023-02-01T09:43:45;18.50;;;1.93;;
13108;SDS011;6620;53.734;11.510;2023-02-01T09:48:44;17.58;;;2.83;;
13108;SDS011;6620;53.734;11.510;2023-02-01T09:51:16;6.82;;;1.88;;
13108;SDS011;6620;53.734;11.510;2023-02-01T09:53:44;12.20;;;1.65;;
13108;SDS011;6620;53.734;11.510;2023-02-01T09:56:12;14.52;;;1.75;;
13108;SDS011;6620;53.734;11.510;2023-02-01T10:01:08;13.82;;;1.50;;
13108;SDS011;6620;53.734;11.510;2023-02-01T10:03:35;5.83;;;1.10;;
13108;SDS011;6620;53.734;11.510;2023-02-01T10:06:04;13.50;;;1.60;;
13108;SDS011;6620;53.734;11.510;2023-02-01T10:10:58;14.05;;;2.13;;
13108;SDS011;6620;53.734;11.510;2023-02-01T10:13:43;9.25;;;1.63;;
13108;SDS011;6620;53.734;11.510;2023-02-01T10:16:21;16.77;;;2.15;;
13108;SDS011;6620;53.734;11.510;2023-02-01T10:18:52;23.73;;;3.30;;
13108;SDS011;6620;53.734;11.510;2023-02-01T10:26:39;16.15;;;2.78;;
13108;SDS011;6620;53.734;11.510;2023-02-01T10:29:11;10.93;;;1.42;;
13108;SDS011;6620;53.734;11.510;2023-02-01T10:31:36;13.32;;;2.22;;
13108;SDS011;6620;53.734;11.510;2023-02-01T10:39:22;17.60;;;3.00;;
13108;SDS011;6620;53.734;11.510;2023-02-01T10:41:48;15.75;;;3.45;;
13108;SDS011;6620;53.734;11.510;2023-02-01T10:44:22;27.35;;;2.70;;
13108;SDS011;6620;53.734;11.510;2023-02-01T10:46:49;10.48;;;1.60;;
13108;SDS011;6620;53.734;11.510;2023-02-01T10:49:18;9.65;;;1.85;;
13108;SDS011;6620;53.734;11.510;2023-02-01T10:51:52;6.35;;;1.10;;
13108;SDS011;6620;53.734;11.510;2023-02-01T10:54:20;13.00;;;1.42;;
13108;SDS011;6620;53.734;11.510;2023-02-01T10:56:46;14.10;;;2.58;;
13108;SDS011;6620;53.734;11.510;2023-02-01T10:59:16;15.40;;;1.73;;
13108;SDS011;6620;53.734;11.510;2023-02-01T11:01:42;5.35;;;0.95;;
13108;SDS011;6620;53.734;11.510;2023-02-01T11:04:10;6.63;;;1.13;;
13108;SDS011;6620;53.734;11.510;2023-02-01T11:06:40;9.63;;;1.17;;
13108;SDS011;6620;53.734;11.510;2023-02-01T11:11:31;10.50;;;1.40;;
13108;SDS011;6620;53.734;11.510;2023-02-01T11:14:00;14.68;;;1.50;;
13108;SDS011;6620;53.734;11.510;2023-02-01T11:16:30;16.02;;;1.70;;
13108;SDS011;6620;53.734;11.510;2023-02-01T11:18:55;10.35;;;1.73;;
13108;SDS011;6620;53.734;11.510;2023-02-01T11:21:22;17.13;;;2.10;;
13108;SDS011;6620;53.734;11.510;2023-02-01T11:23:48;11.15;;;1.10;;
13108;SDS011;6620;53.734;11.510;2023-02-01T11:26:20;16.25;;;2.80;;
13108;SDS011;6620;53.734;11.510;2023-02-01T11:29:10;16.52;;;2.47;;
13108;SDS011;6620;53.734;11.510;2023-02-01T11:31:36;19.73;;;3.65;;
13108;SDS011;6620;53.734;11.510;2023-02-01T11:34:08;13.70;;;2.70;;
13108;SDS011;6620;53.734;11.510;2023-02-01T11:36:36;17.05;;;1.73;;
13108;SDS011;6620;53.734;11.510;2023-02-01T11:41:43;15.68;;;3.15;;
13108;SDS011;6620;53.734;11.510;2023-02-01T11:46:52;13.35;;;1.52;;
13108;SDS011;6620;53.734;11.510;2023-02-01T11:51:47;15.38;;;2.97;;
13108;SDS011;6620;53.734;11.510;2023-02-01T12:22:12;14.87;;;2.20;;
13108;SDS011;6620;53.734;11.510;2023-02-01T12:30:13;7.03;;;0.70;;
13108;SDS011;6620;53.734;11.510;2023-02-01T12:33:00;4.82;;;0.80;;
13108;SDS011;6620;53.734;11.510;2023-02-01T12:38:20;8.35;;;1.95;;
13108;SDS011;6620;53.734;11.510;2023-02-01T12:40:57;4.32;;;0.50;;
13108;SDS011;6620;53.734;11.510;2023-02-01T12:43:48;3.70;;;0.68;;
13108;SDS011;6620;53.734;11.510;2023-02-01T12:46:13;5.43;;;0.68;;
13108;SDS011;6620;53.734;11.510;2023-02-01T12:48:49;14.10;;;1.65;;
13108;SDS011;6620;53.734;11.510;2023-02-01T12:51:23;0.60;;;0.10;;
13108;SDS011;6620;53.734;11.510;2023-02-01T12:53:53;4.90;;;0.50;;
13108;SDS011;6620;53.734;11.510;2023-02-01T12:56:34;1.95;;;0.30;;
13108;SDS011;6620;53.734;11.510;2023-02-01T12:59:03;5.05;;;0.35;;
13108;SDS011;6620;53.734;11.510;2023-02-01T13:01:43;5.97;;;0.40;;
13108;SDS011;6620;53.734;11.510;2023-02-01T13:06:51;7.85;;;0.30;;
13108;SDS011;6620;53.734;11.510;2023-02-01T13:09:30;4.57;;;0.50;;
13108;SDS011;6620;53.734;11.510;2023-02-01T13:11:59;5.25;;;0.95;;
13108;SDS011;6620;53.734;11.510;2023-02-01T13:14:33;1.98;;;0.35;;
13108;SDS011;6620;53.734;11.510;2023-02-01T13:17:02;5.22;;;0.20;;
13108;SDS011;6620;53.734;11.510;2023-02-01T13:19:29;2.30;;;0.20;;
13108;SDS011;6620;53.734;11.510;2023-02-01T13:21:57;3.22;;;0.50;;
13108;SDS011;6620;53.734;11.510;2023-02-01T13:24:32;4.03;;;0.50;;
13108;SDS011;6620;53.734;11.510;2023-02-01T13:26:58;7.22;;;0.55;;
13108;SDS011;6620;53.734;11.510;2023-02-01T13:29:23;2.83;;;0.45;;
13108;SDS011;6620;53.734;11.510;2023-02-01T13:31:57;10.10;;;0.88;;
13108;SDS011;6620;53.734;11.510;2023-02-01T13:44:40;5.68;;;0.60;;
13108;SDS011;6620;53.734;11.510;2023-02-01T13:47:27;10.75;;;1.02;;
13108;SDS011;6620;53.734;11.510;2023-02-01T13:49:51;8.52;;;1.80;;
13108;SDS011;6620;53.734;11.510;2023-02-01T13:52:25;11.80;;;1.92;;
13108;SDS011;6620;53.734;11.510;2023-02-01T13:55:00;20.52;;;2.95;;
13108;SDS011;6620;53.734;11.510;2023-02-01T13:57:43;10.82;;;1.80;;
13108;SDS011;6620;53.734;11.510;2023-02-01T14:00:23;9.52;;;1.30;;
13108;SDS011;6620;53.734;11.510;2023-02-01T14:03:10;16.65;;;0.82;;
13108;SDS011;6620;53.734;11.510;2023-02-01T14:10:47;2.25;;;0.35;;
13108;SDS011;6620;53.734;11.510;2023-02-01T14:15:38;3.17;;;0.30;;
13108;SDS011;6620;53.734;11.510;2023-02-01T14:18:15;2.00;;;0.52;;
13108;SDS011;6620;53.734;11.510;2023-02-01T14:20:48;2.05;;;0.43;;
13108;SDS011;6620;53.734;11.510;2023-02-01T14:23:16;2.33;;;0.32;;
13108;SDS011;6620;53.734;11.510;2023-02-01T14:25:43;4.03;;;0.80;;
13108;SDS011;6620;53.734;11.510;2023-02-01T14:28:12;2.47;;;0.50;;
13108;SDS011;6620;53.734;11.510;2023-02-01T14:30:46;1.58;;;0.50;;
13108;SDS011;6620;53.734;11.510;2023-02-01T14:33:20;1.02;;;0.73;;
13108;SDS011;6620;53.734;11.510;2023-02-01T14:35:54;3.35;;;0.35;;
13108;SDS011;6620;53.734;11.510;2023-02-01T14:38:21;4.63;;;0.68;;
13108;SDS011;6620;53.734;11.510;2023-02-01T14:40:46;3.45;;;0.40;;
13108;SDS011;6620;53.734;11.510;2023-02-01T14:43:12;3.22;;;0.70;;
13108;SDS011;6620;53.734;11.510;2023-02-01T15:00:54;2.10;;;0.45;;
13108;SDS011;6620;53.734;11.510;2023-02-01T15:03:34;6.50;;;1.75;;
13108;SDS011;6620;53.734;11.510;2023-02-01T15:06:00;1.17;;;0.30;;
13108;SDS011;6620;53.734;11.510;2023-02-01T15:08:30;5.65;;;0.45;;
13108;SDS011;6620;53.734;11.510;2023-02-01T15:10:56;1.95;;;0.50;;
13108;SDS011;6620;53.734;11.510;2023-02-01T15:13:24;2.72;;;0.40;;
13108;SDS011;6620;53.734;11.510;2023-02-01T15:16:02;5.57;;;0.30;;
13108;SDS011;6620;53.734;11.510;2023-02-01T15:18:28;2.63;;;0.20;;
13108;SDS011;6620;53.734;11.510;2023-02-01T15:20:57;0.30;;;0.30;;
13108;SDS011;6620;53.734;11.510;2023-02-01T15:23:22;3.60;;;0.60;;
13108;SDS011;6620;53.734;11.510;2023-02-01T15:25:48;0.77;;;0.20;;
13108;SDS011;6620;53.734;11.510;2023-02-01T15:28:14;1.85;;;0.50;;
13108;SDS011;6620;53.734;11.510;2023-02-01T15:30:39;2.67;;;0.73;;
13108;SDS011;6620;53.734;11.510;2023-02-01T15:33:15;4.60;;;0.50;;
13108;SDS011;6620;53.734;11.510;2023-02-01T15:35:44;4.63;;;0.63;;
13108;SDS011;6620;53.734;11.510;2023-02-01T15:40:59;7.68;;;0.73;;
13108;SDS011;6620;53.734;11.510;2023-02-01T15:43:25;4.93;;;0.40;;
13108;SDS011;6620;53.734;11.510;2023-02-01T15:45:51;7.00;;;0.98;;
13108;SDS011;6620;53.734;11.510;2023-02-01T15:48:20;1.55;;;0.30;;
13108;SDS011;6620;53.734;11.510;2023-02-01T15:50:46;9.25;;;0.80;;
13108;SDS011;6620;53.734;11.510;2023-02-01T15:53:17;13.40;;;2.60;;
13108;SDS011;6620;53.734;11.510;2023-02-01T15:55:43;7.88;;;0.75;;
13108;SDS011;6620;53.734;11.510;2023-02-01T15:58:12;9.18;;;0.65;;
13108;SDS011;6620;53.734;11.510;2023-02-01T16:05:56;1.88;;;0.30;;
13108;SDS011;6620;53.734;11.510;2023-02-01T16:08:22;3.75;;;0.57;;
13108;SDS011;6620;53.734;11.510;2023-02-01T16:10:48;5.75;;;0.80;;
13108;SDS011;6620;53.734;11.510;2023-02-01T16:13:15;8.57;;;1.15;;
13108;SDS011;6620;53.734;11.510;2023-02-01T16:15:40;5.60;;;0.65;;
13108;SDS011;6620;53.734;11.510;2023-02-01T16:18:06;8.88;;;0.70;;
13108;SDS011;6620;53.734;11.510;2023-02-01T16:20:33;7.22;;;0.98;;
13108;SDS011;6620;53.734;11.510;2023-02-01T16:23:00;6.82;;;0.73;;
13108;SDS011;6620;53.734;11.510;2023-02-01T16:25:25;9.57;;;0.80;;
13108;SDS011;6620;53.734;11.510;2023-02-01T16:27:50;3.80;;;1.02;;
13108;SDS011;6620;53.734;11.510;2023-02-01T16:30:15;11.43;;;1.13;;
13108;SDS011;6620;53.734;11.510;2023-02-01T16:32:43;9.48;;;1.10;;
13108;SDS011;6620;53.734;11.510;2023-02-01T16:35:20;5.27;;;0.93;;
13108;SDS011;6620;53.734;11.510;2023-02-01T16:37:46;8.70;;;1.52;;
13108;SDS011;6620;53.734;11.510;2023-02-01T16:40:13;4.78;;;0.65;;
13108;SDS011;6620;53.734;11.510;2023-02-01T16:42:38;18.08;;;1.73;;
13108;SDS011;6620;53.734;11.510;2023-02-01T16:45:03;5.73;;;1.10;;
13108;SDS011;6620;53.734;11.510;2023-02-01T16:47:29;22.75;;;1.27;;
13108;SDS011;6620;53.734;11.510;2023-02-01T16:49:54;11.55;;;1.30;;
13108;SDS011;6620;53.734;11.510;2023-02-01T16:52:23;19.10;;;2.43;;
13108;SDS011;6620;53.734;11.510;2023-02-01T16:54:49;12.70;;;1.65;;
13108;SDS011;6620;53.734;11.510;2023-02-01T16:57:15;15.20;;;1.90;;
13108;SDS011;6620;53.734;11.510;2023-02-01T16:59:41;13.93;;;2.58;;
13108;SDS011;6620;53.734;11.510;2023-02-01T17:02:09;11.35;;;1.67;;
13108;SDS011;6620;53.734;11.510;2023-02-01T17:04:35;15.07;;;2.30;;
13108;SDS011;6620;53.734;11.510;2023-02-01T17:07:01;15.85;;;1.48;;
13108;SDS011;6620;53.734;11.510;2023-02-01T17:09:33;13.18;;;1.40;;
13108;SDS011;6620;53.734;11.510;2023-02-01T17:11:58;16.33;;;1.70;;
13108;SDS011;6620;53.734;11.510;2023-02-01T17:14:23;11.67;;;1.97;;
13108;SDS011;6620;53.734;11.510;2023-02-01T17:16:49;11.75;;;1.80;;